• Join FlightAware (Why Join?)
  • Login
  • US Flag 
03:20PM EDT


 

Airport Tracker/Info


-or-


 

Live Flight TrackerFlight Track Log ✈ CES2228 ✈ 30-Nov-2013 ✈ ZUJZ / JZH - ZSPD / PVG

Flight Track Log - Related Links

Times and Time Zones

All times are in EST time to prevent confusion due to time zone crossing. See the CES2228 flight status page for this flight to view local times or setup timezone preferences in your user account.

Time Position Orientation Groundspeed Altitude Reporting Facility
EST Latitude Longitude Course Direction KTS MPH feet Rate Location/Type
07:19AM 32.7688 106.3870 91° East  Level Estimated
07:20AM 32.7626 106.5292 93° East  Level Estimated
07:21AM 32.7562 106.6713 93° East  Level Estimated
07:22AM 32.7496 106.8134 93° East  Level Estimated
07:23AM 32.7429 106.9555 93° East  Level Estimated
07:24AM 32.7360 107.0976 93° East  Level Estimated
07:25AM 32.7289 107.2396 93° East  Level Estimated
07:26AM 32.7217 107.3816 93° East  Level Estimated
07:27AM 32.7144 107.5236 93° East  Level Estimated
07:28AM 32.7068 107.6656 94° East  Level Estimated
07:29AM 32.6991 107.8075 94° East  Level Estimated
07:30AM 32.6913 107.9495 94° East  Level Estimated
07:31AM 32.6833 108.0914 94° East  Level Estimated
07:32AM 32.6751 108.2333 94° East  Level Estimated
07:33AM 32.6668 108.3751 94° East  Level Estimated
07:34AM 32.6583 108.5169 94° East  Level Estimated
07:35AM 32.6496 108.6587 94° East  Level Estimated
07:36AM 32.6408 108.8005 94° East  Level Estimated
07:37AM 32.6319 108.9422 94° East  Level Estimated
07:38AM 32.6227 109.0839 94° East  Level Estimated
07:39AM 32.6134 109.2256 94° East  Level Estimated
07:40AM 32.6040 109.3673 94° East  Level Estimated
07:41AM 32.5944 109.5089 95° East  Level Estimated
07:42AM 32.5846 109.6505 95° East  Level Estimated
07:43AM 32.5747 109.7920 95° East  Level Estimated
07:44AM 32.5647 109.9336 95° East  Level Estimated
07:45AM 32.5544 110.0751 95° East  Level Estimated
07:46AM 32.5440 110.2165 95° East  Level Estimated
07:47AM 32.5335 110.3579 95° East  Level Estimated
07:48AM 32.5228 110.4994 95° East  Level Estimated
07:49AM 32.5119 110.6407 95° East  Level Estimated
07:50AM 32.5009 110.7820 95° East  Level Estimated
07:51AM 32.4897 110.9233 95° East  Level Estimated
07:52AM 32.4783 111.0646 95° East  Level Estimated
07:53AM 32.4668 111.2058 95° East  Level Estimated
07:54AM 32.4552 111.3470 96° East  Level Estimated
07:55AM 32.4433 111.4882 96° East  Level Estimated
07:56AM 32.4314 111.6293 96° East  Level Estimated
07:57AM 32.4192 111.7703 96° East  Level Estimated
07:58AM 32.4069 111.9114 96° East  Level Estimated
07:59AM 32.3945 112.0524 96° East  Level Estimated
08:00AM 32.3819 112.1933 96° East  Level Estimated
08:01AM 32.3691 112.3343 96° East  Level Estimated
08:02AM 32.3562 112.4751 96° East  Level Estimated
08:03AM 32.3431 112.6160 96° East  Level Estimated
08:04AM 32.3299 112.7568 96° East  Level Estimated
08:05AM 32.3165 112.8975 96° East  Level Estimated
08:06AM 32.3030 113.0382 96° East  Level Estimated
08:07AM 32.2893 113.1789 97° East  Level Estimated
08:08AM 32.2754 113.3195 97° East  Level Estimated
08:09AM 32.2614 113.4601 97° East  Level Estimated
08:10AM 32.2472 113.6007 97° East  Level Estimated
08:11AM 32.2329 113.7412 97° East  Level Estimated
08:12AM 32.2184 113.8816 97° East  Level Estimated
08:13AM 32.2038 114.0220 97° East  Level Estimated
08:14AM 32.1890 114.1624 97° East  Level Estimated
08:15AM 32.1741 114.3027 97° East  Level Estimated
08:16AM 32.1590 114.4430 97° East  Level Estimated
08:17AM 32.1437 114.5832 97° East  Level Estimated
08:18AM 32.1283 114.7234 97° East  Level Estimated
08:19AM 32.1128 114.8635 97° East  Level Estimated
08:20AM 32.0971 115.0036 98° East  Level Estimated
08:21AM 32.0812 115.1436 98° East  Level Estimated
08:22AM 32.0652 115.2836 98° East  Level Estimated
08:23AM 32.0490 115.4235 98° East  Level Estimated
08:24AM 32.0327 115.5634 98° East  Level Estimated
08:25AM 32.0162 115.7033 98° East  Level Estimated
08:26AM 31.9995 115.8431 98° East  Level Estimated
08:27AM 31.9827 115.9828 98° East  Level Estimated
08:28AM 31.9658 116.1225 98° East  Level Estimated
08:29AM 31.9487 116.2621 98° East  Level Estimated
08:30AM 31.9315 116.4017 98° East  Level Estimated
08:31AM 31.9141 116.5412 98° East  Level Estimated
08:32AM 31.8965 116.6807 98° East  Level Estimated
08:33AM 31.8788 116.8201 98° East  Level Estimated
08:34AM 31.8609 116.9595 99° East  Level Estimated
08:35AM 31.8429 117.0988 99° East  Level Estimated
08:36AM 31.8248 117.2380 99° East  Level Estimated
08:37AM 31.8065 117.3772 99° East  Level Estimated
08:38AM 31.7880 117.5164 99° East  Level Estimated
08:39AM 31.7694 117.6555 99° East  Level Estimated
08:40AM 31.7506 117.7945 99° East  Level Estimated
08:41AM 31.7317 117.9335 99° East  Level Estimated
08:42AM 31.7126 118.0724 99° East  Level Estimated
08:43AM 31.6934 118.2113 99° East  Level Estimated
08:44AM 31.6740 118.3501 99° East  Level Estimated
08:45AM 31.6545 118.4888 99° East  Level Estimated
08:46AM 31.6348 118.6275 99° East  Level Estimated
08:47AM 31.6150 118.7662 99° East  Level Estimated
08:48AM 31.5950 118.9047 100° East  Level Estimated
08:49AM 31.5749 119.0432 100° East  Level Estimated
08:50AM 31.5546 119.1817 100° East  Level Estimated
08:51AM 31.5342 119.3201 100° East  Level Estimated
08:52AM 31.5137 119.4584 100° East  Level Estimated
08:53AM 31.4930 119.5967 100° East  Level Estimated
08:54AM 31.4721 119.7349 100° East  Level Estimated
08:55AM 31.4511 119.8730 100° East  Level Estimated
08:56AM 31.4299 120.0111 100° East  Level Estimated
08:57AM 31.4086 120.1491 100° East  Level Estimated
08:58AM 31.3871 120.2871 100° East  Level Estimated
08:59AM 31.3655 120.4250 100° East  Level Estimated
09:00AM 31.3438 120.5628 100° East  Level Estimated
09:01AM 31.3219 120.7006 101° East  Level Estimated
09:02AM 31.2999 120.8383 101° East  Level Estimated
09:03AM 31.2771 120.9792 101° East  Level Estimated
09:04AM 31.2543 121.1201 101° East  Level Estimated
09:05AM 31.2312 121.2608 101° East  Level Estimated
09:06AM 31.2080 121.4016 101° East  Level Estimated
09:07AM 31.1847 121.5422 101° East  Level Estimated
09:08AM 31.1612 121.6828 101° East  Level Estimated
09:09AM 31.1428 121.7924 101° East  Level Estimated
09:10AM 31.1428 121.7924 221° Southwest  Level Estimated
09:11AM 31.1428 121.7924 221° Southwest  Level Estimated
09:12AM 31.1428 121.7924 221° Southwest  Level Estimated
09:13AM 31.1428 121.7924 221° Southwest  Level Estimated
09:14AM 31.1428 121.7924 221° Southwest  Level Estimated
09:15AM 31.1428 121.7924 221° Southwest  Level Estimated
09:16AM 31.1428 121.7924 221° Southwest  Level Estimated
09:17AM 31.1428 121.7924 221° Southwest  Level Estimated
09:18AM 31.1428 121.7924 221° Southwest  Level Estimated